Terminal Aerodrome Forecast
Issued by NWS

Home | Current Version | Previous Version | Text Only | Print | Product List | Glossary On
Versions: 1 2 3 4 5 6 7 8 9 10 11 12 13
000
FTUS45 KRIW 271720
TAFCPR
TAF
KCPR 271720Z 2718/2818 33010KT P6SM SCT080 SCT120
     FM280200 VRB06KT P6SM SCT120
     FM280800 22008KT P6SM SCT150=

USA.gov is the U.S. government's official web portal to all federal, state and local government web resources and services.